Time;durP1;ratioP1;P1;durP2;ratioP2;P2;SDS_P1;SDS_P2;PMS_P1;PMS_P2;Temp;Humidity;BMP_temperature;BMP_pressure;BME280_temperature;BME280_humidity;BME280_pressure;Samples;Min_cycle;Max_cycle;Signal;HPM_P1;HPM_P2
2022/06/06 00:02:28;;;;;;;;;;;;;;;10.48;79.13;96817.84;6247305;28;19921;-69
2022/06/06 00:05:29;;;;;;;;;;;;;;;10.54;79.45;96815.66;6247305;28;19955;-68
2022/06/06 00:08:30;;;;;;;;;;;;;;;10.49;79.43;96809.84;6246942;28;20015;-68
2022/06/06 00:11:34;;;;;;;;;;;;;;;10.42;79.59;96813.81;6247059;28;19921;-68
2022/06/06 00:14:35;;;;;;;;;;;;;;;10.50;79.33;96815.94;6246682;28;19921;-67
2022/06/06 00:17:38;;;;;;;;;;;;;;;10.30;79.90;96810.22;6245661;28;19921;-67
2022/06/06 00:20:41;;;;;;;;;;;;;;;10.28;80.25;96806.00;6246779;28;19921;-67
2022/06/06 00:23:42;;;;;;;;;;;;;;;10.46;80.30;96803.94;6246274;28;20304;-66
2022/06/06 00:26:43;;;;;;;;;;;;;;;10.48;79.93;96796.81;6246650;28;19921;-67
2022/06/06 00:29:51;;;;;;;;;;;;;;;10.42;79.97;96813.00;6246465;28;20320;-68
2022/06/06 00:36:12;;;;;;;;;;;;;;;10.37;80.49;96799.28;6246488;28;19921;-68
2022/06/06 00:39:16;;;;;;;;;;;;;;;10.34;80.58;96793.28;6246239;28;19921;-67
2022/06/06 00:42:30;;;;;;;;;;;;;;;10.41;80.62;96784.97;6246330;28;19921;-67
2022/06/06 00:45:36;;;;;;;;;;;;;;;10.46;80.56;96782.91;6246137;28;19921;-67
2022/06/06 00:48:39;;;;;;;;;;;;;;;10.57;80.38;96788.28;6245993;28;19967;-68
2022/06/06 00:51:40;;;;;;;;;;;;;;;10.60;80.37;96795.97;6245882;28;19920;-67
2022/06/06 00:54:42;;;;;;;;;;;;;;;10.72;80.28;96795.16;6245998;28;19939;-68
2022/06/06 00:57:48;;;;;;;;;;;;;;;10.74;79.99;96798.53;6244788;28;19921;-67
2022/06/06 01:00:50;;;;;;;;;;;;;;;10.76;79.94;96795.81;6245667;28;20335;-68
2022/06/06 01:03:58;;;;;;;;;;;;;;;10.74;80.04;96803.81;6246035;28;20395;-67
2022/06/06 01:07:00;;;;;;;;;;;;;;;10.74;80.16;96810.84;6245802;28;19928;-67
2022/06/06 01:10:02;;;;;;;;;;;;;;;10.78;80.12;96805.31;6244460;28;20450;-67
2022/06/06 01:13:06;;;;;;;;;;;;;;;10.76;79.81;96817.72;6246123;28;19925;-68
2022/06/06 01:16:07;;;;;;;;;;;;;;;10.72;79.81;96818.84;6246230;28;19932;-68
2022/06/06 01:19:15;;;;;;;;;;;;;;;10.78;79.89;96815.81;6245694;28;20445;-68
2022/06/06 01:22:35;;;;;;;;;;;;;;;10.85;79.54;96811.00;6246227;28;19921;-69
2022/06/06 01:25:38;;;;;;;;;;;;;;;10.97;79.37;96809.31;6245847;28;20008;-67
2022/06/06 01:29:02;;;;;;;;;;;;;;;11.05;79.11;96820.19;6245732;28;20071;-67
2022/06/06 01:32:05;;;;;;;;;;;;;;;11.02;78.88;96807.22;6245691;28;20403;-67
2022/06/06 01:35:08;;;;;;;;;;;;;;;11.00;78.69;96811.75;6245972;28;19928;-68
2022/06/06 01:38:11;;;;;;;;;;;;;;;11.05;78.97;96816.72;6245622;28;19928;-67
2022/06/06 01:41:15;;;;;;;;;;;;;;;11.18;78.95;96820.16;6245451;28;19964;-67
2022/06/06 01:44:24;;;;;;;;;;;;;;;11.32;78.64;96819.22;6245658;28;19920;-67
2022/06/06 01:47:33;;;;;;;;;;;;;;;11.49;78.41;96834.72;6245447;28;19920;-67
2022/06/06 01:50:38;;;;;;;;;;;;;;;11.62;78.18;96832.09;6245239;28;19921;-67
2022/06/06 01:53:40;;;;;;;;;;;;;;;11.74;77.67;96830.38;6245654;28;20055;-67
2022/06/06 01:56:41;;;;;;;;;;;;;;;11.81;77.59;96829.00;6245502;28;19921;-67
2022/06/06 01:59:43;;;;;;;;;;;;;;;11.91;77.42;96822.16;6245378;28;19921;-67
2022/06/06 02:02:46;;;;;;;;;;;;;;;12.02;77.25;96819.59;6244968;28;20295;-68
2022/06/06 02:05:48;;;;;;;;;;;;;;;12.16;76.96;96825.69;6244908;28;20034;-67
2022/06/06 02:08:50;;;;;;;;;;;;;;;12.21;75.94;96821.75;6245293;28;19921;-66
2022/06/06 02:11:51;;;;;;;;;;;;;;;12.04;75.13;96815.06;6247072;28;19921;-68
2022/06/06 02:14:53;;;;;;;;;;;;;;;11.79;76.12;96810.66;6249764;28;19921;-68
2022/06/06 02:17:57;;;;;;;;;;;;;;;11.80;76.21;96803.59;6249516;28;19925;-68
2022/06/06 02:21:02;;;;;;;;;;;;;;;11.85;76.21;96785.66;6249471;28;19920;-68
2022/06/06 02:24:07;;;;;;;;;;;;;;;11.97;75.88;96787.44;6247844;28;19925;-67
2022/06/06 02:27:08;;;;;;;;;;;;;;;11.99;75.13;96782.91;6249019;28;20072;-67
2022/06/06 02:30:17;;;;;;;;;;;;;;;11.97;75.33;96795.34;6249297;28;20416;-67
2022/06/06 02:33:17;;;;;;;;;;;;;;;12.04;75.05;96790.50;6249400;28;19921;-68
2022/06/06 02:36:19;;;;;;;;;;;;;;;11.95;75.12;96792.00;6249045;28;19921;-68
2022/06/06 02:39:20;;;;;;;;;;;;;;;12.12;73.99;96788.97;6249152;28;19921;-67
2022/06/06 02:42:21;;;;;;;;;;;;;;;11.97;73.94;96790.06;6249139;28;20449;-67
2022/06/06 02:45:25;;;;;;;;;;;;;;;11.99;74.15;96801.34;6248876;28;19921;-67
2022/06/06 02:48:30;;;;;;;;;;;;;;;11.90;73.77;96788.84;6248793;28;19921;-68
2022/06/06 02:51:34;;;;;;;;;;;;;;;11.91;74.47;96795.78;6248936;28;19920;-67
2022/06/06 02:54:36;;;;;;;;;;;;;;;11.90;73.89;96786.19;6248721;28;20311;-68
2022/06/06 02:57:40;;;;;;;;;;;;;;;11.81;74.51;96789.47;6248090;28;19925;-68
2022/06/06 03:00:44;;;;;;;;;;;;;;;11.76;74.65;96791.59;6248189;28;19921;-67
2022/06/06 03:03:46;;;;;;;;;;;;;;;11.86;74.75;96788.22;6248481;28;19921;-68
2022/06/06 03:06:58;;;;;;;;;;;;;;;11.81;74.86;96784.19;6248364;28;19928;-68
2022/06/06 03:10:08;;;;;;;;;;;;;;;11.96;73.93;96783.13;6247132;28;19952;-68
2022/06/06 03:13:18;;;;;;;;;;;;;;;11.76;74.30;96770.50;6248155;28;19923;-67
2022/06/06 03:23:34;;;;;;;;;;;;;;;11.87;75.00;96767.97;6247930;28;20303;-68
2022/06/06 03:26:36;;;;;;;;;;;;;;;12.04;75.16;96780.78;6248075;28;19929;-67
2022/06/06 03:29:49;;;;;;;;;;;;;;;12.16;74.83;96789.59;6248131;28;20347;-67
2022/06/06 03:32:56;;;;;;;;;;;;;;;12.22;74.66;96775.13;6247735;28;20392;-68
2022/06/06 03:35:57;;;;;;;;;;;;;;;12.26;74.73;96779.22;6247450;28;19921;-68
2022/06/06 03:39:13;;;;;;;;;;;;;;;12.30;74.59;96785.94;6247520;28;19921;-68
2022/06/06 03:42:16;;;;;;;;;;;;;;;12.35;74.08;96783.81;6248172;28;19921;-67
2022/06/06 03:45:25;;;;;;;;;;;;;;;12.29;73.71;96779.00;6247389;28;19920;-67
2022/06/06 03:48:29;;;;;;;;;;;;;;;12.26;74.10;96784.50;6247179;28;19925;-68
2022/06/06 03:51:36;;;;;;;;;;;;;;;12.61;72.94;96788.97;6247569;28;19921;-68
2022/06/06 03:54:47;;;;;;;;;;;;;;;12.50;73.03;96787.13;6245894;28;19920;-66
2022/06/06 03:57:53;;;;;;;;;;;;;;;12.57;72.25;96783.09;6247256;28;19921;-72
2022/06/06 04:00:55;;;;;;;;;;;;;;;12.65;72.25;96779.84;6246749;28;19928;-67
2022/06/06 04:04:03;;;;;;;;;;;;;;;12.68;71.61;96758.50;6246917;28;20362;-67
2022/06/06 04:07:06;;;;;;;;;;;;;;;12.74;71.61;96763.34;6246843;28;20319;-68
2022/06/06 04:10:08;;;;;;;;;;;;;;;12.87;71.55;96768.53;6246664;28;19924;-68
2022/06/06 04:13:15;;;;;;;;;;;;;;;12.81;71.77;96775.13;6246698;28;19921;-67
2022/06/06 04:16:38;;;;;;;;;;;;;;;12.90;72.02;96768.28;6246721;28;20019;-68
2022/06/06 04:19:48;;;;;;;;;;;;;;;12.99;71.59;96768.47;6246480;28;19921;-68
2022/06/06 04:22:52;;;;;;;;;;;;;;;13.07;71.42;96764.38;6246212;28;19921;-67
2022/06/06 04:26:01;;;;;;;;;;;;;;;13.09;71.52;96762.47;6246363;28;19980;-67
2022/06/06 04:29:11;;;;;;;;;;;;;;;13.43;70.60;96750.97;6246380;28;19920;-67
2022/06/06 04:32:21;;;;;;;;;;;;;;;13.72;69.40;96763.72;6246305;28;19925;-68
2022/06/06 04:35:45;;;;;;;;;;;;;;;13.85;67.93;96745.91;6245795;28;19925;-68
2022/06/06 04:39:05;;;;;;;;;;;;;;;13.98;67.05;96752.84;6244837;28;20422;-67
2022/06/06 04:42:13;;;;;;;;;;;;;;;14.07;66.95;96744.19;6246196;28;19947;-68
2022/06/06 04:45:34;;;;;;;;;;;;;;;14.21;66.72;96729.81;6246031;28;19921;-68
2022/06/06 04:48:35;;;;;;;;;;;;;;;14.22;66.83;96727.06;6246299;28;19928;-67
2022/06/06 04:51:38;;;;;;;;;;;;;;;14.17;66.60;96723.94;6245944;28;19932;-67
2022/06/06 04:54:44;;;;;;;;;;;;;;;14.17;67.17;96734.53;6246256;28;19927;-67
2022/06/06 04:57:46;;;;;;;;;;;;;;;14.18;67.25;96736.19;6245741;28;19927;-68
2022/06/06 05:00:48;;;;;;;;;;;;;;;14.20;67.13;96723.69;6246353;28;19928;-68
2022/06/06 05:03:50;;;;;;;;;;;;;;;14.12;67.46;96726.13;6245784;28;19921;-68
2022/06/06 05:07:02;;;;;;;;;;;;;;;14.08;67.06;96728.19;6245801;28;19921;-68
2022/06/06 05:10:04;;;;;;;;;;;;;;;13.91;67.04;96724.25;6245164;28;19925;-67
2022/06/06 05:13:17;;;;;;;;;;;;;;;13.87;67.63;96737.84;6245906;28;19921;-68
2022/06/06 05:16:20;;;;;;;;;;;;;;;13.83;67.39;96747.00;6245657;28;19921;-67
2022/06/06 05:19:24;;;;;;;;;;;;;;;13.50;68.27;96755.78;6245517;28;19921;-68
2022/06/06 05:22:28;;;;;;;;;;;;;;;13.29;69.03;96751.22;6245719;28;19921;-68
2022/06/06 05:25:40;;;;;;;;;;;;;;;13.10;69.98;96745.66;6245562;28;20016;-67
2022/06/06 05:28:48;;;;;;;;;;;;;;;13.06;70.36;96741.56;6245384;28;19921;-68
2022/06/06 05:32:08;;;;;;;;;;;;;;;13.15;70.14;96740.84;6244661;28;19928;-67
2022/06/06 05:35:23;;;;;;;;;;;;;;;12.92;71.08;96739.97;6245844;28;19921;-68
2022/06/06 05:38:36;;;;;;;;;;;;;;;12.96;70.93;96720.28;6245757;28;19928;-67
2022/06/06 05:41:46;;;;;;;;;;;;;;;12.90;71.58;96720.75;6245657;28;19921;-67
2022/06/06 05:45:05;;;;;;;;;;;;;;;13.13;70.86;96705.78;6245516;28;20272;-68
2022/06/06 05:48:17;;;;;;;;;;;;;;;13.26;70.90;96701.25;6249378;28;20293;-68
2022/06/06 05:51:45;;;;;;;;;;;;;;;13.31;70.27;96677.97;6250039;28;20006;-70
2022/06/06 05:54:52;;;;;;;;;;;;;;;13.24;70.88;96660.88;6249799;28;19928;-68
2022/06/06 05:57:55;;;;;;;;;;;;;;;13.22;71.44;96644.31;6249833;28;19921;-67
2022/06/06 06:01:14;;;;;;;;;;;;;;;13.53;71.25;96628.66;6249752;28;20019;-68
2022/06/06 06:04:36;;;;;;;;;;;;;;;13.91;70.48;96628.19;6249305;28;19927;-68
2022/06/06 06:07:46;;;;;;;;;;;;;;;14.15;69.74;96604.16;6248866;28;19925;-68
2022/06/06 06:11:04;;;;;;;;;;;;;;;14.54;69.31;96605.28;6249482;28;19921;-67
2022/06/06 06:14:11;;;;;;;;;;;;;;;15.04;68.14;96608.03;6249600;28;19921;-67
2022/06/06 06:17:18;;;;;;;;;;;;;;;15.38;67.16;96631.59;6249432;28;19920;-68
2022/06/06 06:20:25;;;;;;;;;;;;;;;15.36;66.98;96644.13;6249238;28;19921;-67
2022/06/06 06:23:33;;;;;;;;;;;;;;;15.36;67.02;96635.34;6249124;28;19921;-67
2022/06/06 06:26:40;;;;;;;;;;;;;;;15.65;66.36;96665.44;6249740;28;19927;-67
2022/06/06 06:29:46;;;;;;;;;;;;;;;15.78;64.90;96675.81;6249239;28;20006;-68
2022/06/06 06:32:55;;;;;;;;;;;;;;;15.62;64.44;96668.34;6249037;28;19921;-68
2022/06/06 06:36:05;;;;;;;;;;;;;;;15.50;64.33;96677.38;6249126;28;20299;-67
2022/06/06 06:39:13;;;;;;;;;;;;;;;15.41;64.95;96683.50;6249156;28;19920;-68
2022/06/06 06:42:24;;;;;;;;;;;;;;;15.36;64.56;96678.59;6249152;28;20316;-67
2022/06/06 06:45:29;;;;;;;;;;;;;;;15.30;64.52;96686.25;6248819;28;19927;-68
2022/06/06 06:48:34;;;;;;;;;;;;;;;15.39;63.57;96685.44;6248950;28;19921;-68
2022/06/06 06:51:41;;;;;;;;;;;;;;;15.55;63.04;96685.78;6248856;28;20006;-67
2022/06/06 06:55:00;;;;;;;;;;;;;;;15.17;64.34;96686.47;6248923;28;19927;-67
2022/06/06 06:58:03;;;;;;;;;;;;;;;15.52;63.50;96682.56;6248403;28;20027;-67
2022/06/06 07:01:08;;;;;;;;;;;;;;;16.01;63.19;96681.72;6248887;28;20004;-67
2022/06/06 07:11:07;;;;;;;;;;;;;;;17.00;59.82;96668.25;6249300;28;20023;-67
2022/06/06 07:14:12;;;;;;;;;;;;;;;17.13;58.83;96673.28;6247100;28;19921;-67
2022/06/06 07:17:18;;;;;;;;;;;;;;;17.17;58.60;96664.84;6246473;28;20414;-68
2022/06/06 07:20:20;;;;;;;;;;;;;;;17.26;57.74;96657.81;6246745;28;19920;-68
2022/06/06 07:23:27;;;;;;;;;;;;;;;17.16;58.69;96659.69;6247932;28;19940;-68
2022/06/06 07:26:37;;;;;;;;;;;;;;;17.19;58.82;96659.38;6247862;28;19921;-69
2022/06/06 07:29:41;;;;;;;;;;;;;;;16.96;59.50;96666.88;6247876;28;20392;-69
2022/06/06 07:32:48;;;;;;;;;;;;;;;16.75;59.92;96661.72;6247942;28;19921;-70
2022/06/06 07:35:54;;;;;;;;;;;;;;;16.58;60.47;96658.78;6247950;28;19921;-68
2022/06/06 07:39:04;;;;;;;;;;;;;;;16.51;61.05;96648.91;6247747;28;19982;-69
2022/06/06 07:42:07;;;;;;;;;;;;;;;16.60;61.08;96656.84;6247687;28;20304;-69
2022/06/06 07:45:30;;;;;;;;;;;;;;;16.79;60.83;96656.00;6247525;28;20289;-68
2022/06/06 07:48:33;;;;;;;;;;;;;;;17.09;59.16;96642.63;6247515;28;19921;-68
2022/06/06 07:51:39;;;;;;;;;;;;;;;16.93;59.75;96638.78;6247403;28;20027;-67
2022/06/06 07:54:43;;;;;;;;;;;;;;;17.07;59.81;96637.47;6247454;28;20373;-68
2022/06/06 07:57:54;;;;;;;;;;;;;;;17.13;59.53;96636.88;6247063;28;19921;-68
2022/06/06 08:01:02;;;;;;;;;;;;;;;17.23;58.63;96632.34;6245737;28;19952;-68
2022/06/06 08:04:21;;;;;;;;;;;;;;;16.99;59.83;96624.91;6246918;28;19928;-67
2022/06/06 08:07:22;;;;;;;;;;;;;;;17.09;60.08;96634.66;6246997;28;19927;-67
2022/06/06 08:10:27;;;;;;;;;;;;;;;17.24;59.53;96627.88;6245897;28;19921;-68
2022/06/06 08:13:46;;;;;;;;;;;;;;;17.15;59.51;96620.78;6246866;28;19921;-68
2022/06/06 08:17:02;;;;;;;;;;;;;;;17.05;59.91;96628.78;6246614;28;19935;-68
2022/06/06 08:20:09;;;;;;;;;;;;;;;17.05;60.03;96629.63;6246744;28;19925;-68
2022/06/06 08:23:13;;;;;;;;;;;;;;;17.04;59.95;96622.66;6246476;28;19921;-68
2022/06/06 08:26:15;;;;;;;;;;;;;;;16.94;60.44;96616.53;6246320;28;19920;-69
2022/06/06 08:29:19;;;;;;;;;;;;;;;17.05;60.46;96619.00;6246532;28;19920;-68
2022/06/06 08:32:22;;;;;;;;;;;;;;;17.21;60.19;96617.50;6246348;28;19921;-68
2022/06/06 08:35:32;;;;;;;;;;;;;;;17.40;59.79;96606.78;6246973;28;20400;-67
2022/06/06 08:38:44;;;;;;;;;;;;;;;17.47;59.31;96602.56;6245144;28;19921;-68
2022/06/06 08:42:05;;;;;;;;;;;;;;;17.23;59.76;96610.25;6246482;28;20393;-68
2022/06/06 08:45:09;;;;;;;;;;;;;;;17.19;60.25;96603.56;6244851;28;19921;-66
2022/06/06 08:48:21;;;;;;;;;;;;;;;17.33;60.23;96592.44;6245750;28;19921;-68
2022/06/06 08:51:34;;;;;;;;;;;;;;;17.54;59.53;96594.81;6246025;28;20411;-67
2022/06/06 08:54:40;;;;;;;;;;;;;;;17.68;59.30;96585.47;6245788;28;19921;-67
2022/06/06 08:57:41;;;;;;;;;;;;;;;17.83;59.36;96581.34;6245988;28;20011;-68
2022/06/06 09:00:55;;;;;;;;;;;;;;;17.97;58.49;96582.63;6245877;28;19946;-67
2022/06/06 09:03:59;;;;;;;;;;;;;;;17.94;58.52;96575.78;6245611;28;19921;-68
2022/06/06 09:07:18;;;;;;;;;;;;;;;18.10;57.30;96579.59;6244665;28;20304;-68
2022/06/06 09:10:38;;;;;;;;;;;;;;;18.00;58.00;96578.81;6245844;28;19921;-67
2022/06/06 09:14:00;;;;;;;;;;;;;;;18.18;57.57;96585.81;6245800;28;20300;-68
2022/06/06 09:17:01;;;;;;;;;;;;;;;18.37;57.69;96587.47;6246111;28;19928;-68
2022/06/06 09:20:07;;;;;;;;;;;;;;;18.57;57.06;96588.13;6246095;28;19921;-68
2022/06/06 09:23:21;;;;;;;;;;;;;;;18.70;56.98;96598.34;6250251;28;19921;-68
2022/06/06 09:26:36;;;;;;;;;;;;;;;18.76;56.79;96584.41;6250528;28;20425;-69
2022/06/06 09:29:55;;;;;;;;;;;;;;;18.79;55.97;96583.28;6250753;28;19925;-69
2022/06/06 09:33:09;;;;;;;;;;;;;;;18.54;57.45;96576.91;6250294;28;19920;-69
2022/06/06 09:36:13;;;;;;;;;;;;;;;18.42;57.73;96564.84;6250077;28;19921;-67
2022/06/06 09:39:17;;;;;;;;;;;;;;;18.29;58.04;96555.44;6250320;28;19921;-69
2022/06/06 09:42:20;;;;;;;;;;;;;;;18.25;58.25;96564.72;6250337;28;19928;-68
2022/06/06 09:45:35;;;;;;;;;;;;;;;18.34;58.08;96558.50;6250118;28;20012;-68
2022/06/06 09:48:48;;;;;;;;;;;;;;;18.30;57.98;96562.44;6250210;28;19921;-68
2022/06/06 09:51:52;;;;;;;;;;;;;;;18.30;58.28;96570.44;6249794;28;19921;-67
2022/06/06 10:02:17;;;;;;;;;;;;;;;19.05;57.03;96549.44;6249759;28;19921;-68
2022/06/06 10:05:37;;;;;;;;;;;;;;;19.68;55.66;96548.16;6249403;28;19921;-68
2022/06/06 10:08:38;;;;;;;;;;;;;;;20.32;53.67;96544.84;6249047;28;19921;-69
2022/06/06 10:11:58;;;;;;;;;;;;;;;21.15;52.25;96541.00;6249433;28;19920;-68
2022/06/06 10:15:05;;;;;;;;;;;;;;;21.58;51.21;96544.16;6249496;28;19925;-68
2022/06/06 10:18:26;;;;;;;;;;;;;;;21.91;51.20;96542.94;6249754;28;20388;-68
2022/06/06 10:21:45;;;;;;;;;;;;;;;22.47;50.28;96541.84;6248720;28;19947;-68
2022/06/06 10:24:47;;;;;;;;;;;;;;;22.57;49.39;96531.69;6248895;28;19928;-68
2022/06/06 10:27:54;;;;;;;;;;;;;;;23.13;49.14;96532.13;6249362;28;19928;-68
2022/06/06 10:31:15;;;;;;;;;;;;;;;23.56;48.17;96534.91;6249255;28;19927;-68
2022/06/06 10:34:34;;;;;;;;;;;;;;;23.61;48.62;96535.19;6248022;28;19943;-67
2022/06/06 10:37:46;;;;;;;;;;;;;;;23.63;47.92;96527.75;6248846;28;19921;-67
2022/06/06 10:40:50;;;;;;;;;;;;;;;23.40;48.14;96516.31;6248794;28;19927;-68
2022/06/06 10:44:17;;;;;;;;;;;;;;;23.03;47.69;96523.50;6249019;28;19921;-68
2022/06/06 10:47:34;;;;;;;;;;;;;;;22.50;49.01;96523.53;6247968;28;19975;-68
2022/06/06 10:51:36;;;;;;;;;;;;;;;22.11;48.32;96527.22;6248405;28;19921;-67
2022/06/06 10:54:11;;;;;;;;;;;;;;;21.22;50.37;96525.91;6248425;28;19920;-67
2022/06/06 10:57:14;;;;;;;;;;;;;;;20.78;50.90;96529.09;6248302;28;19991;-67
2022/06/06 11:00:19;;;;;;;;;;;;;;;20.51;50.79;96528.44;6247229;28;19925;-67
2022/06/06 11:03:46;;;;;;;;;;;;;;;20.34;50.99;96532.16;6248428;28;19928;-67
2022/06/06 11:06:47;;;;;;;;;;;;;;;20.03;51.71;96527.47;6248043;28;19932;-68
2022/06/06 11:10:02;;;;;;;;;;;;;;;19.78;52.54;96518.63;6248497;28;20015;-68
2022/06/06 11:13:11;;;;;;;;;;;;;;;19.64;53.12;96509.38;6248626;28;19928;-67
2022/06/06 11:16:14;;;;;;;;;;;;;;;19.52;53.69;96500.03;6248465;28;19921;-68
2022/06/06 11:19:41;;;;;;;;;;;;;;;19.73;53.17;96500.44;6247773;28;19986;-68
2022/06/06 11:22:57;;;;;;;;;;;;;;;20.05;52.73;96490.75;6247561;28;19920;-68
2022/06/06 11:26:01;;;;;;;;;;;;;;;20.42;51.98;96481.38;6247968;28;20006;-67
2022/06/06 11:29:22;;;;;;;;;;;;;;;20.75;51.54;96479.47;6247916;28;19925;-68
2022/06/06 11:32:31;;;;;;;;;;;;;;;21.67;49.78;96476.16;6247720;28;19925;-68
2022/06/06 11:35:47;;;;;;;;;;;;;;;22.38;48.49;96480.25;6247792;28;19925;-68
2022/06/06 11:39:02;;;;;;;;;;;;;;;23.36;46.98;96477.47;6247729;28;19921;-67
2022/06/06 11:42:46;;;;;;;;;;;;;;;24.20;44.84;96474.97;6247680;28;19921;-68
2022/06/06 11:46:01;;;;;;;;;;;;;;;24.08;45.01;96474.69;6242998;28;19921;-68
2022/06/06 11:49:07;;;;;;;;;;;;;;;23.96;45.72;96473.56;6244851;28;19921;-68
2022/06/06 11:52:29;;;;;;;;;;;;;;;24.27;45.59;96475.88;6246209;28;19921;-68
2022/06/06 11:55:41;;;;;;;;;;;;;;;24.36;44.93;96463.13;6247156;28;20311;-67
2022/06/06 11:59:03;;;;;;;;;;;;;;;24.09;46.11;96459.38;6247427;28;19956;-67
2022/06/06 12:02:29;;;;;;;;;;;;;;;23.71;46.89;96457.81;6246503;28;20017;-68
2022/06/06 12:05:36;;;;;;;;;;;;;;;23.36;47.74;96445.25;6247002;28;19924;-68
2022/06/06 12:08:39;;;;;;;;;;;;;;;22.81;48.19;96434.84;6246906;28;20419;-68
2022/06/06 12:11:59;;;;;;;;;;;;;;;22.18;49.33;96431.72;6246845;28;19920;-68
2022/06/06 12:15:09;;;;;;;;;;;;;;;21.68;50.55;96424.25;6246718;28;19921;-68
2022/06/06 12:18:25;;;;;;;;;;;;;;;21.65;50.72;96424.63;6246505;28;19921;-68
2022/06/06 12:21:26;;;;;;;;;;;;;;;21.78;50.30;96418.69;6246721;28;19943;-68
2022/06/06 12:24:30;;;;;;;;;;;;;;;21.81;50.31;96421.81;6246724;28;19921;-68
2022/06/06 12:27:46;;;;;;;;;;;;;;;21.52;50.68;96415.34;6246345;28;19920;-68
2022/06/06 12:31:07;;;;;;;;;;;;;;;21.18;51.52;96418.41;6246185;28;19947;-68
2022/06/06 12:34:30;;;;;;;;;;;;;;;20.84;52.23;96405.41;6246388;28;19921;-68
2022/06/06 12:37:51;;;;;;;;;;;;;;;20.65;52.71;96405.81;6246089;28;19975;-68
2022/06/06 12:41:31;;;;;;;;;;;;;;;20.50;53.17;96403.84;6246013;28;19921;-68
2022/06/06 12:44:50;;;;;;;;;;;;;;;20.31;53.65;96385.53;6242752;28;20324;-68
2022/06/06 12:47:54;;;;;;;;;;;;;;;20.14;54.19;96382.06;6227275;28;19921;-67
2022/06/06 12:51:14;;;;;;;;;;;;;;;19.89;54.79;96378.63;6245615;28;19927;-68
2022/06/06 12:54:18;;;;;;;;;;;;;;;19.85;54.90;96378.13;6245237;28;19964;-69
2022/06/06 12:57:28;;;;;;;;;;;;;;;19.89;54.86;96373.28;6245175;28;20406;-68
2022/06/06 13:04:01;;;;;;;;;;;;;;;19.84;54.85;96348.94;6245699;28;20099;-68
2022/06/06 13:07:09;;;;;;;;;;;;;;;20.02;54.72;96328.19;6245114;28;19932;-68
2022/06/06 13:10:33;;;;;;;;;;;;;;;20.18;54.89;96322.81;6246070;28;20730;-69
2022/06/06 13:13:46;;;;;;;;;;;;;;;20.20;55.06;96306.59;6245035;28;19920;-68
2022/06/06 13:16:59;;;;;;;;;;;;;;;20.15;55.01;96317.78;6245604;28;19925;-67
2022/06/06 13:20:09;;;;;;;;;;;;;;;20.09;55.32;96299.78;6245820;28;19925;-68
2022/06/06 13:23:29;;;;;;;;;;;;;;;20.03;55.65;96299.66;6245619;28;20062;-69
2022/06/06 13:26:44;;;;;;;;;;;;;;;20.02;55.68;96296.16;6245477;28;20397;-68
2022/06/06 13:29:48;;;;;;;;;;;;;;;20.07;55.78;96285.78;6245157;28;19921;-68
2022/06/06 13:32:55;;;;;;;;;;;;;;;20.11;55.81;96276.41;6245280;28;19944;-68
2022/06/06 13:35:56;;;;;;;;;;;;;;;20.18;55.77;96263.19;6245199;28;19921;-67
2022/06/06 13:39:11;;;;;;;;;;;;;;;20.16;55.62;96263.38;6245814;28;19921;-69
2022/06/06 13:42:12;;;;;;;;;;;;;;;20.08;56.23;96255.41;6244753;28;19921;-68
2022/06/06 13:45:24;;;;;;;;;;;;;;;19.85;56.92;96249.16;6245104;28;19925;-68
2022/06/06 13:48:54;;;;;;;;;;;;;;;19.64;57.33;96237.16;6244748;28;19921;-68
2022/06/06 13:52:30;;;;;;;;;;;;;;;19.60;57.44;96246.53;6243518;28;20415;-69
2022/06/06 13:55:33;;;;;;;;;;;;;;;19.74;57.09;96243.19;6245086;28;19928;-68
2022/06/06 13:58:43;;;;;;;;;;;;;;;19.88;57.06;96246.16;6245150;28;19921;-68
2022/06/06 14:01:43;;;;;;;;;;;;;;;19.97;56.46;96242.44;6244977;28;19921;-68
2022/06/06 14:04:45;;;;;;;;;;;;;;;19.92;56.87;96239.44;6244909;28;20007;-68
2022/06/06 14:07:55;;;;;;;;;;;;;;;19.79;56.97;96244.47;6245839;28;19928;-68
2022/06/06 14:11:05;;;;;;;;;;;;;;;19.56;57.69;96244.34;6249770;28;19921;-68
2022/06/06 14:14:08;;;;;;;;;;;;;;;19.33;58.11;96234.41;6249292;28;20356;-68
2022/06/06 14:17:12;;;;;;;;;;;;;;;19.13;58.51;96235.75;6249419;28;20402;-67
2022/06/06 14:20:17;;;;;;;;;;;;;;;19.01;59.02;96225.44;6249042;28;20014;-69
2022/06/06 14:23:23;;;;;;;;;;;;;;;18.89;59.47;96229.47;6248758;28;19956;-69
2022/06/06 14:26:26;;;;;;;;;;;;;;;18.82;59.46;96237.31;6249036;28;19965;-68
2022/06/06 14:29:30;;;;;;;;;;;;;;;18.79;59.82;96245.59;6248649;28;19921;-68
2022/06/06 14:32:31;;;;;;;;;;;;;;;18.73;60.08;96240.91;6247764;28;19920;-67
2022/06/06 14:35:38;;;;;;;;;;;;;;;18.77;60.02;96234.28;6248419;28;20438;-69
2022/06/06 14:38:39;;;;;;;;;;;;;;;18.80;60.24;96233.97;6248530;28;19925;-68
2022/06/06 14:41:49;;;;;;;;;;;;;;;18.82;60.00;96228.44;6248737;28;19921;-68
2022/06/06 14:45:03;;;;;;;;;;;;;;;18.79;59.72;96221.63;6248436;28;19947;-68
2022/06/06 14:48:12;;;;;;;;;;;;;;;18.73;60.05;96216.09;6248698;28;20019;-67
2022/06/06 14:51:14;;;;;;;;;;;;;;;18.62;60.58;96219.91;6248262;28;19928;-68
2022/06/06 14:54:19;;;;;;;;;;;;;;;18.53;60.74;96215.59;6248433;28;19921;-68
2022/06/06 14:57:25;;;;;;;;;;;;;;;18.50;61.29;96221.25;6248561;28;19921;-69
2022/06/06 15:00:35;;;;;;;;;;;;;;;18.34;61.50;96217.56;6248603;28;19921;-68
2022/06/06 15:03:44;;;;;;;;;;;;;;;18.31;61.89;96223.19;6246982;28;19925;-67
2022/06/06 15:06:52;;;;;;;;;;;;;;;18.23;62.22;96220.53;6248109;28;19925;-67
2022/06/06 15:10:00;;;;;;;;;;;;;;;18.15;62.55;96213.34;6248238;28;19921;-69
2022/06/06 15:13:05;;;;;;;;;;;;;;;18.14;62.45;96216.16;6248077;28;19920;-68
2022/06/06 15:16:06;;;;;;;;;;;;;;;18.12;62.90;96210.19;6247775;28;20422;-66
2022/06/06 15:19:36;;;;;;;;;;;;;;;18.09;62.61;96199.88;6247608;28;20396;-68
2022/06/06 15:22:40;;;;;;;;;;;;;;;18.06;62.63;96194.84;6247023;28;19921;-69
2022/06/06 15:25:49;;;;;;;;;;;;;;;18.00;62.90;96187.50;6246418;28;19944;-68
2022/06/06 15:28:51;;;;;;;;;;;;;;;17.94;63.11;96184.50;6247279;28;19921;-68
2022/06/06 15:31:55;;;;;;;;;;;;;;;17.92;63.16;96183.84;6247783;28;19927;-67
2022/06/06 15:34:59;;;;;;;;;;;;;;;17.78;63.50;96189.78;6247642;28;20311;-67
2022/06/06 15:38:11;;;;;;;;;;;;;;;17.60;63.90;96186.34;6246908;28;19929;-68
2022/06/06 15:41:24;;;;;;;;;;;;;;;17.48;64.33;96183.97;6246810;28;20415;-68
2022/06/06 15:44:37;;;;;;;;;;;;;;;17.37;64.69;96181.59;6246046;28;19929;-69
2022/06/06 15:47:48;;;;;;;;;;;;;;;17.27;65.07;96175.56;6247120;28;19921;-68
2022/06/06 15:51:10;;;;;;;;;;;;;;;17.19;65.14;96186.16;6246752;28;20303;-68
2022/06/06 15:54:30;;;;;;;;;;;;;;;17.06;65.38;96179.41;6246916;28;20280;-68
2022/06/06 15:57:39;;;;;;;;;;;;;;;17.03;65.54;96185.03;6246086;28;19921;-69
2022/06/06 16:00:50;;;;;;;;;;;;;;;16.96;65.85;96173.38;6246779;28;19928;-68
2022/06/06 16:03:51;;;;;;;;;;;;;;;16.83;66.16;96172.97;6246944;28;19921;-67
2022/06/06 16:06:56;;;;;;;;;;;;;;;16.74;66.47;96168.53;6246782;28;20299;-68
2022/06/06 16:10:13;;;;;;;;;;;;;;;16.80;67.54;96160.81;6247078;28;19920;-68
2022/06/06 16:13:29;;;;;;;;;;;;;;;16.69;67.75;96154.88;6246864;28;19921;-68
2022/06/06 16:16:37;;;;;;;;;;;;;;;16.61;68.26;96147.69;6246822;28;19976;-68
2022/06/06 16:19:44;;;;;;;;;;;;;;;16.44;68.61;96143.25;6246583;28;19928;-68
2022/06/06 16:22:51;;;;;;;;;;;;;;;16.38;69.47;96142.03;6246418;28;20015;-68
2022/06/06 16:26:00;;;;;;;;;;;;;;;16.24;69.69;96138.09;6246640;28;19920;-68
2022/06/06 16:29:05;;;;;;;;;;;;;;;16.19;70.54;96142.19;6246573;28;19925;-69
2022/06/06 16:32:18;;;;;;;;;;;;;;;16.06;71.16;96137.28;6245476;28;20134;-68
2022/06/06 16:35:25;;;;;;;;;;;;;;;15.93;71.17;96137.63;6247044;28;19928;-68
2022/06/06 16:38:35;;;;;;;;;;;;;;;15.86;71.79;96136.59;6246622;28;20392;-68
2022/06/06 16:48:48;;;;;;;;;;;;;;;15.73;73.11;96141.41;6245114;28;19920;-68
2022/06/06 16:52:04;;;;;;;;;;;;;;;15.68;73.13;96144.50;6246714;28;19921;-68
2022/06/06 16:55:18;;;;;;;;;;;;;;;15.58;73.20;96139.22;6246100;28;19994;-69
2022/06/06 16:58:25;;;;;;;;;;;;;;;15.74;74.11;96132.47;6246129;28;20000;-69
2022/06/06 17:01:26;;;;;;;;;;;;;;;15.65;73.74;96103.19;6246044;28;19932;-68